createdAt,value
2017-11-29T00:00:22.686Z,997.97
2017-11-29T00:01:22.666Z,997.92
2017-11-29T00:02:22.639Z,997.99
2017-11-29T00:03:22.616Z,997.93
2017-11-29T00:04:22.595Z,997.95
2017-11-29T00:05:22.575Z,997.99
2017-11-29T00:06:22.552Z,997.96
2017-11-29T00:07:22.533Z,997.93
2017-11-29T00:08:22.512Z,997.92
2017-11-29T00:09:22.487Z,997.96
2017-11-29T00:10:22.467Z,997.94
2017-11-29T00:11:22.449Z,997.99
2017-11-29T00:12:22.427Z,997.96
2017-11-29T00:13:22.400Z,998.00
2017-11-29T00:14:22.377Z,997.95
2017-11-29T00:15:22.363Z,997.96
2017-11-29T00:16:22.335Z,997.97
2017-11-29T00:17:22.309Z,997.97
2017-11-29T00:18:22.287Z,997.96
2017-11-29T00:19:22.266Z,997.97
2017-11-29T00:20:22.245Z,997.98
2017-11-29T00:21:22.232Z,997.99
2017-11-29T00:22:22.203Z,997.99
2017-11-29T00:23:22.177Z,998.00
2017-11-29T00:24:22.157Z,998.01
2017-11-29T00:25:22.138Z,997.97
2017-11-29T00:26:22.117Z,997.99
2017-11-29T00:27:22.100Z,997.97
2017-11-29T00:28:22.072Z,997.94
2017-11-29T00:29:22.055Z,997.96
2017-11-29T00:30:22.029Z,997.97
2017-11-29T00:31:22.004Z,997.94
2017-11-29T00:32:21.993Z,997.95
2017-11-29T00:33:21.974Z,997.91
2017-11-29T00:34:21.944Z,997.92
2017-11-29T00:35:21.917Z,997.93
2017-11-29T00:36:21.894Z,997.92
2017-11-29T00:37:21.882Z,997.93
2017-11-29T00:38:21.852Z,997.94
2017-11-29T00:39:21.830Z,997.91
2017-11-29T00:40:21.808Z,997.93
2017-11-29T00:41:21.786Z,997.86
2017-11-29T00:42:21.765Z,997.92
2017-11-29T00:43:21.742Z,997.90
2017-11-29T00:44:21.717Z,997.89
2017-11-29T00:45:21.696Z,997.91
2017-11-29T00:46:21.687Z,997.86
2017-11-29T00:47:21.655Z,997.86
2017-11-29T00:48:21.632Z,997.87
2017-11-29T00:49:21.605Z,997.86
2017-11-29T00:50:21.585Z,997.86
2017-11-29T00:51:21.564Z,997.86
2017-11-29T00:52:21.542Z,997.84
2017-11-29T00:53:21.517Z,997.84
2017-11-29T00:54:21.497Z,997.88
2017-11-29T00:55:21.474Z,997.89
2017-11-29T00:56:21.457Z,997.86
2017-11-29T00:57:21.433Z,997.88
2017-11-29T00:58:21.410Z,997.88
2017-11-29T00:59:21.387Z,997.86
2017-11-29T01:00:21.367Z,997.89
2017-11-29T01:01:21.348Z,997.90
2017-11-29T01:02:21.325Z,997.89
2017-11-29T01:03:21.299Z,997.86
2017-11-29T01:04:21.280Z,997.84
2017-11-29T01:05:21.255Z,997.85
2017-11-29T01:06:21.241Z,997.86
2017-11-29T01:07:21.217Z,997.83
2017-11-29T01:08:21.194Z,997.85
2017-11-29T01:09:21.170Z,997.83
2017-11-29T01:10:21.150Z,997.81
2017-11-29T01:11:21.127Z,997.81
2017-11-29T01:12:21.108Z,997.82
2017-11-29T01:13:21.082Z,997.80
2017-11-29T01:14:21.065Z,997.79
2017-11-29T01:15:21.042Z,997.78
2017-11-29T01:16:21.015Z,997.78
2017-11-29T01:17:20.991Z,997.75
2017-11-29T01:18:20.966Z,997.77
2017-11-29T01:19:20.945Z,997.78
2017-11-29T01:20:20.921Z,997.78
2017-11-29T01:21:20.895Z,997.81
2017-11-29T01:22:20.875Z,997.80
2017-11-29T01:23:20.855Z,997.83
2017-11-29T01:24:20.830Z,997.84
2017-11-29T01:25:20.807Z,997.84
2017-11-29T01:26:20.798Z,997.84
2017-11-29T01:27:20.768Z,997.86
2017-11-29T01:28:20.748Z,997.84
2017-11-29T01:29:20.721Z,997.84
2017-11-29T01:30:20.699Z,997.86
2017-11-29T01:31:20.680Z,997.82
2017-11-29T01:32:20.656Z,997.84
2017-11-29T01:33:20.635Z,997.79
2017-11-29T01:34:20.611Z,997.80
2017-11-29T01:35:20.590Z,997.84
2017-11-29T01:36:20.571Z,997.76
2017-11-29T01:37:20.554Z,997.76
2017-11-29T01:38:20.528Z,997.80
2017-11-29T01:39:20.500Z,997.80
2017-11-29T01:40:20.484Z,997.78
2017-11-29T01:41:20.460Z,997.81
2017-11-29T01:42:20.435Z,997.82
2017-11-29T01:43:20.412Z,997.83
2017-11-29T01:44:20.390Z,997.81
2017-11-29T01:45:20.365Z,997.85
2017-11-29T01:46:20.344Z,997.82
2017-11-29T01:47:20.322Z,997.84
2017-11-29T01:48:20.298Z,997.83
2017-11-29T01:49:20.284Z,997.87
2017-11-29T01:50:20.256Z,997.87
2017-11-29T01:51:20.233Z,997.87
2017-11-29T01:52:20.210Z,997.85
2017-11-29T01:53:20.191Z,997.89
2017-11-29T01:54:20.166Z,997.87
2017-11-29T01:55:20.144Z,997.86
2017-11-29T01:56:20.126Z,997.86
2017-11-29T01:57:20.103Z,997.84
2017-11-29T01:58:20.079Z,997.85
2017-11-29T01:59:20.056Z,997.86
2017-11-29T02:00:20.041Z,997.84
2017-11-29T02:01:20.010Z,997.84
2017-11-29T02:02:20.003Z,997.81
2017-11-29T02:03:19.966Z,997.78
2017-11-29T02:04:19.947Z,997.83
2017-11-29T02:05:19.922Z,997.80
2017-11-29T02:06:19.903Z,997.79
2017-11-29T02:07:19.875Z,997.78
2017-11-29T02:08:19.858Z,997.81
2017-11-29T02:09:19.838Z,997.78
2017-11-29T02:10:19.810Z,997.79
2017-11-29T02:11:19.787Z,997.77
2017-11-29T02:12:19.767Z,997.77
2017-11-29T02:13:19.748Z,997.79
2017-11-29T02:14:19.727Z,997.81
2017-11-29T02:15:19.700Z,997.80
2017-11-29T02:16:19.678Z,997.78
2017-11-29T02:17:19.685Z,997.77
2017-11-29T02:18:19.639Z,997.77
2017-11-29T02:19:19.614Z,997.76
2017-11-29T02:20:19.588Z,997.73
2017-11-29T02:21:19.564Z,997.72
2017-11-29T02:22:19.547Z,997.74
2017-11-29T02:23:19.518Z,997.72
2017-11-29T02:24:19.496Z,997.73
2017-11-29T02:25:19.480Z,997.78
2017-11-29T02:26:19.454Z,997.76
2017-11-29T02:27:19.430Z,997.75
2017-11-29T02:28:19.417Z,997.77
2017-11-29T02:29:19.386Z,997.77
2017-11-29T02:30:19.373Z,997.74
2017-11-29T02:31:19.342Z,997.76
2017-11-29T02:32:19.320Z,997.75
2017-11-29T02:33:19.296Z,997.76
2017-11-29T02:34:19.279Z,997.74
2017-11-29T02:35:19.255Z,997.74
2017-11-29T02:36:19.229Z,997.72
2017-11-29T02:37:19.206Z,997.72
2017-11-29T02:38:19.183Z,997.72
2017-11-29T02:39:19.169Z,997.75
2017-11-29T02:40:19.137Z,997.75
2017-11-29T02:41:19.114Z,997.76
2017-11-29T02:42:19.096Z,997.77
2017-11-29T02:43:19.073Z,997.77
2017-11-29T02:44:19.058Z,997.78
2017-11-29T02:45:19.024Z,997.75
2017-11-29T02:46:19.004Z,997.75
2017-11-29T02:47:18.981Z,997.79
2017-11-29T02:48:18.960Z,997.76
2017-11-29T02:49:18.936Z,997.77
2017-11-29T02:50:18.916Z,997.77
2017-11-29T02:51:18.892Z,997.77
2017-11-29T02:52:18.870Z,997.77
2017-11-29T02:53:18.846Z,997.80
2017-11-29T02:54:18.831Z,997.82
2017-11-29T02:55:18.802Z,997.82
2017-11-29T02:56:18.779Z,997.86
2017-11-29T02:57:18.756Z,997.88
2017-11-29T02:58:18.735Z,997.82
2017-11-29T02:59:18.725Z,997.85
2017-11-29T03:00:18.689Z,997.84
2017-11-29T03:01:18.666Z,997.82
2017-11-29T03:02:18.644Z,997.82
2017-11-29T03:03:18.622Z,997.81
2017-11-29T03:04:18.601Z,997.83
2017-11-29T03:05:18.574Z,997.84
2017-11-29T03:06:18.554Z,997.85
2017-11-29T03:07:18.533Z,997.85
2017-11-29T03:08:18.516Z,997.84
2017-11-29T03:09:18.485Z,997.87
2017-11-29T03:10:18.466Z,997.87
2017-11-29T03:11:18.448Z,997.85
2017-11-29T03:12:18.424Z,997.83
2017-11-29T03:13:18.404Z,997.83
2017-11-29T03:14:18.381Z,997.83
2017-11-29T03:15:18.356Z,997.80
2017-11-29T03:16:18.335Z,997.82
2017-11-29T03:17:18.306Z,997.79
2017-11-29T03:18:18.290Z,997.81
2017-11-29T03:19:18.266Z,997.81
2017-11-29T03:20:18.240Z,997.82
2017-11-29T03:21:18.220Z,997.79
2017-11-29T03:22:18.198Z,997.82
2017-11-29T03:23:18.179Z,997.82
2017-11-29T03:24:18.155Z,997.83
2017-11-29T03:25:18.131Z,997.83
2017-11-29T03:26:18.105Z,997.83
2017-11-29T03:27:18.087Z,997.82
2017-11-29T03:28:18.066Z,997.81
2017-11-29T03:29:18.042Z,997.80
2017-11-29T03:30:18.017Z,997.78
2017-11-29T03:31:17.996Z,997.81
2017-11-29T03:32:17.974Z,997.80
2017-11-29T03:33:17.955Z,997.81
2017-11-29T03:34:17.931Z,997.82
2017-11-29T03:35:17.906Z,997.83
2017-11-29T03:36:17.884Z,997.85
2017-11-29T03:37:17.865Z,997.85
2017-11-29T03:38:17.842Z,997.82
2017-11-29T03:39:17.817Z,997.87
2017-11-29T03:40:17.797Z,997.82
2017-11-29T03:41:17.773Z,997.83
2017-11-29T03:42:17.758Z,997.88
2017-11-29T03:43:17.737Z,997.80
2017-11-29T03:44:17.715Z,997.80
2017-11-29T03:45:17.686Z,997.77
2017-11-29T03:46:17.668Z,997.78
2017-11-29T03:47:17.643Z,997.78
2017-11-29T03:48:17.625Z,997.80
2017-11-29T03:49:17.596Z,997.78
2017-11-29T03:50:17.576Z,997.76
2017-11-29T03:51:17.555Z,997.74
2017-11-29T03:52:17.535Z,997.77
2017-11-29T03:53:17.506Z,997.72
2017-11-29T03:54:17.486Z,997.73
2017-11-29T03:55:17.463Z,997.74
2017-11-29T03:56:17.439Z,997.77
2017-11-29T03:57:17.417Z,997.75
2017-11-29T03:58:17.395Z,997.77
2017-11-29T03:59:17.372Z,997.77
2017-11-29T04:00:17.352Z,997.77
2017-11-29T04:01:17.347Z,997.79
2017-11-29T04:02:17.304Z,997.79
2017-11-29T04:03:17.323Z,997.77
2017-11-29T04:04:17.267Z,997.78
2017-11-29T04:05:17.249Z,997.75
2017-11-29T04:06:17.218Z,997.75
2017-11-29T04:07:17.195Z,997.73
2017-11-29T04:08:17.175Z,997.74
2017-11-29T04:09:17.154Z,997.72
2017-11-29T04:10:17.127Z,997.72
2017-11-29T04:11:17.105Z,997.76
2017-11-29T04:12:17.085Z,997.77
2017-11-29T04:13:17.059Z,997.73
2017-11-29T04:14:17.046Z,997.73
2017-11-29T04:15:17.017Z,997.75
2017-11-29T04:16:16.995Z,997.74
2017-11-29T04:17:16.978Z,997.67
2017-11-29T04:18:16.949Z,997.70
2017-11-29T04:19:16.934Z,997.67
2017-11-29T04:20:16.937Z,997.67
2017-11-29T04:21:16.885Z,997.70
2017-11-29T04:22:16.861Z,997.70
2017-11-29T04:23:16.836Z,997.66
2017-11-29T04:24:16.814Z,997.66
2017-11-29T04:25:16.789Z,997.64
2017-11-29T04:26:16.775Z,997.65
2017-11-29T04:27:16.745Z,997.66
2017-11-29T04:28:16.724Z,997.65
2017-11-29T04:29:16.708Z,997.69
2017-11-29T04:30:16.679Z,997.70
2017-11-29T04:31:16.657Z,997.70
2017-11-29T04:32:16.634Z,997.69
2017-11-29T04:33:16.615Z,997.67
2017-11-29T04:34:16.590Z,997.68
2017-11-29T04:35:16.567Z,997.66
2017-11-29T04:36:16.548Z,997.67
2017-11-29T04:37:16.520Z,997.64
2017-11-29T04:38:16.503Z,997.63
2017-11-29T04:39:16.478Z,997.58
2017-11-29T04:40:16.459Z,997.59
2017-11-29T04:41:16.437Z,997.61
2017-11-29T04:42:16.408Z,997.62
2017-11-29T04:43:16.386Z,997.61
2017-11-29T04:44:16.365Z,997.60
2017-11-29T04:45:16.349Z,997.62
2017-11-29T04:46:16.322Z,997.63
2017-11-29T04:47:16.294Z,997.66
2017-11-29T04:48:16.278Z,997.63
2017-11-29T04:49:16.256Z,997.66
2017-11-29T04:50:16.230Z,997.65
2017-11-29T04:51:16.206Z,997.66
2017-11-29T04:52:16.185Z,997.66
2017-11-29T04:53:16.167Z,997.68
2017-11-29T04:54:16.141Z,997.68
2017-11-29T04:55:16.120Z,997.70
2017-11-29T04:56:16.094Z,997.67
2017-11-29T04:57:16.088Z,997.66
2017-11-29T04:58:16.052Z,997.66
2017-11-29T04:59:16.028Z,997.65
2017-11-29T05:00:16.005Z,997.64
2017-11-29T05:01:15.984Z,997.60
2017-11-29T05:02:15.965Z,997.64
2017-11-29T05:03:15.941Z,997.65
2017-11-29T05:04:15.917Z,997.60
2017-11-29T05:05:15.893Z,997.60
2017-11-29T05:06:15.874Z,997.60
2017-11-29T05:07:15.855Z,997.62
2017-11-29T05:08:15.833Z,997.61
2017-11-29T05:09:15.805Z,997.65
2017-11-29T05:10:15.788Z,997.61
2017-11-29T05:11:15.758Z,997.57
2017-11-29T05:12:15.747Z,997.59
2017-11-29T05:13:15.715Z,997.60
2017-11-29T05:14:15.695Z,997.60
2017-11-29T05:15:15.672Z,997.59
2017-11-29T05:16:15.649Z,997.60
2017-11-29T05:17:15.625Z,997.59
2017-11-29T05:18:15.605Z,997.57
2017-11-29T05:19:15.584Z,997.62
2017-11-29T05:20:15.566Z,997.61
2017-11-29T05:21:15.552Z,997.55
2017-11-29T05:22:15.515Z,997.61
2017-11-29T05:23:15.495Z,997.63
2017-11-29T05:24:15.475Z,997.59
2017-11-29T05:25:15.450Z,997.60
2017-11-29T05:26:15.425Z,997.60
2017-11-29T05:27:15.405Z,997.59
2017-11-29T05:28:15.385Z,997.57
2017-11-29T05:29:15.364Z,997.61
2017-11-29T05:30:15.337Z,997.62
2017-11-29T05:31:15.315Z,997.62
2017-11-29T05:32:15.304Z,997.61
2017-11-29T05:33:15.271Z,997.62
2017-11-29T05:34:15.248Z,997.60
2017-11-29T05:35:15.241Z,997.52
2017-11-29T05:36:15.206Z,997.55
2017-11-29T05:37:15.188Z,997.56
2017-11-29T05:38:15.156Z,997.55
2017-11-29T05:39:15.149Z,997.55
2017-11-29T05:40:15.115Z,997.53
2017-11-29T05:41:15.090Z,997.55
2017-11-29T05:42:15.066Z,997.55
2017-11-29T05:43:15.045Z,997.55
2017-11-29T05:44:15.023Z,997.60
2017-11-29T05:45:14.996Z,997.60
2017-11-29T05:46:14.984Z,997.58
2017-11-29T05:47:14.956Z,997.60
2017-11-29T05:48:14.934Z,997.60
2017-11-29T05:49:14.914Z,997.60
2017-11-29T05:50:14.887Z,997.56
2017-11-29T05:51:14.864Z,997.60
2017-11-29T05:52:14.841Z,997.55
2017-11-29T05:53:14.822Z,997.55
2017-11-29T05:54:14.796Z,997.55
2017-11-29T05:55:14.776Z,997.51
2017-11-29T05:56:14.752Z,997.54
2017-11-29T05:57:14.729Z,997.56
2017-11-29T05:58:14.705Z,997.55
2017-11-29T05:59:14.681Z,997.57
2017-11-29T06:00:14.665Z,997.58
2017-11-29T06:01:14.636Z,997.61
2017-11-29T06:02:14.620Z,997.60
2017-11-29T06:03:14.594Z,997.63
2017-11-29T06:04:14.573Z,997.63
2017-11-29T06:05:14.547Z,997.68
2017-11-29T06:06:14.523Z,997.69
2017-11-29T06:07:14.509Z,997.66
2017-11-29T06:08:14.482Z,997.68
2017-11-29T06:09:14.455Z,997.65
2017-11-29T06:10:14.436Z,997.69
2017-11-29T06:11:14.412Z,997.67
2017-11-29T06:12:14.387Z,997.68
2017-11-29T06:13:14.363Z,997.70
2017-11-29T06:14:14.346Z,997.74
2017-11-29T06:15:14.324Z,997.70
2017-11-29T06:16:14.300Z,997.71
2017-11-29T06:17:14.278Z,997.69
2017-11-29T06:18:14.255Z,997.70
2017-11-29T06:19:14.230Z,997.69
2017-11-29T06:20:14.206Z,997.71
2017-11-29T06:21:14.184Z,997.75
2017-11-29T06:22:14.162Z,997.74
2017-11-29T06:23:14.142Z,997.74
2017-11-29T06:24:14.117Z,997.78
2017-11-29T06:25:14.095Z,997.80
2017-11-29T06:26:14.070Z,997.75
2017-11-29T06:27:14.051Z,997.77
2017-11-29T06:28:14.035Z,997.78
2017-11-29T06:29:14.007Z,997.78
2017-11-29T06:30:13.983Z,997.81
2017-11-29T06:31:13.959Z,997.80
2017-11-29T06:32:13.939Z,997.79
2017-11-29T06:33:13.912Z,997.80
2017-11-29T06:34:13.893Z,997.86
2017-11-29T06:35:13.878Z,997.84
2017-11-29T06:36:13.849Z,997.82
2017-11-29T06:37:13.823Z,997.86
2017-11-29T06:38:13.801Z,997.86
2017-11-29T06:39:13.786Z,997.89
2017-11-29T06:40:13.756Z,997.88
2017-11-29T06:41:13.737Z,997.87
2017-11-29T06:42:13.713Z,997.86
2017-11-29T06:43:13.690Z,997.89
2017-11-29T06:44:13.687Z,997.90
2017-11-29T06:45:13.648Z,997.91
2017-11-29T06:46:13.623Z,997.89
2017-11-29T06:47:13.597Z,997.88
2017-11-29T06:48:13.575Z,997.94
2017-11-29T06:49:13.555Z,997.93
2017-11-29T06:50:13.533Z,997.98
2017-11-29T06:51:13.505Z,997.94
2017-11-29T06:52:13.485Z,998.00
2017-11-29T06:53:13.463Z,997.96
2017-11-29T06:54:13.445Z,998.01
2017-11-29T06:55:13.423Z,998.01
2017-11-29T06:56:13.396Z,998.02
2017-11-29T06:57:13.372Z,998.05
2017-11-29T06:58:13.350Z,998.07
2017-11-29T06:59:13.331Z,998.05
2017-11-29T07:00:13.315Z,998.12
2017-11-29T07:01:13.290Z,998.09
2017-11-29T07:02:13.263Z,998.11
2017-11-29T07:03:13.238Z,998.11
2017-11-29T07:04:13.216Z,998.08
2017-11-29T07:05:13.194Z,998.09
2017-11-29T07:06:13.175Z,998.12
2017-11-29T07:07:13.151Z,998.12
2017-11-29T07:08:13.129Z,998.16
2017-11-29T07:09:13.103Z,998.14
2017-11-29T07:10:13.086Z,998.17
2017-11-29T07:11:13.060Z,998.20
2017-11-29T07:12:13.035Z,998.19
2017-11-29T07:13:13.017Z,998.19
2017-11-29T07:14:12.992Z,998.20
2017-11-29T07:15:12.972Z,998.22
2017-11-29T07:16:12.950Z,998.26
2017-11-29T07:17:12.924Z,998.25
2017-11-29T07:18:12.908Z,998.26
2017-11-29T07:19:12.883Z,998.28
2017-11-29T07:20:12.861Z,998.28
2017-11-29T07:21:12.836Z,998.29
2017-11-29T07:22:12.818Z,998.34
2017-11-29T07:23:12.794Z,998.32
2017-11-29T07:24:12.772Z,998.35
2017-11-29T07:25:12.754Z,998.35
2017-11-29T07:26:12.724Z,998.34
2017-11-29T07:27:12.701Z,998.41
2017-11-29T07:28:12.687Z,998.38
2017-11-29T07:29:12.660Z,998.39
2017-11-29T07:30:12.637Z,998.39
2017-11-29T07:31:12.613Z,998.42
2017-11-29T07:32:12.593Z,998.39
2017-11-29T07:33:12.566Z,998.41
2017-11-29T07:34:12.544Z,998.39
2017-11-29T07:35:12.532Z,998.40
2017-11-29T07:36:12.498Z,998.41
2017-11-29T07:37:12.476Z,998.40
2017-11-29T07:38:12.454Z,998.40
2017-11-29T07:39:12.433Z,998.45
2017-11-29T07:40:12.414Z,998.48
2017-11-29T07:41:12.392Z,998.46
2017-11-29T07:42:12.367Z,998.46
2017-11-29T07:43:12.342Z,998.50
2017-11-29T07:44:12.320Z,998.50
2017-11-29T07:45:12.305Z,998.47
2017-11-29T07:46:12.274Z,998.49
2017-11-29T07:47:12.266Z,998.47
2017-11-29T07:48:12.233Z,998.49
2017-11-29T07:49:12.205Z,998.48
2017-11-29T07:50:12.190Z,998.49
2017-11-29T07:51:12.160Z,998.45
2017-11-29T07:52:12.149Z,998.49
2017-11-29T07:53:12.116Z,998.50
2017-11-29T07:54:12.094Z,998.50
2017-11-29T07:55:12.073Z,998.52
2017-11-29T07:56:12.049Z,998.51
2017-11-29T07:57:12.028Z,998.49
2017-11-29T07:58:12.006Z,998.52
2017-11-29T07:59:11.985Z,998.55
2017-11-29T08:00:11.970Z,998.55
2017-11-29T08:01:11.937Z,998.55
2017-11-29T08:02:11.915Z,998.59
2017-11-29T08:03:11.896Z,998.62
2017-11-29T08:04:11.875Z,998.58
2017-11-29T08:05:11.847Z,998.56
2017-11-29T08:06:11.829Z,998.58
2017-11-29T08:07:11.801Z,998.59
2017-11-29T08:08:11.790Z,998.61
2017-11-29T08:09:11.757Z,998.59
2017-11-29T08:10:11.737Z,998.60
2017-11-29T08:11:11.718Z,998.63
2017-11-29T08:12:11.693Z,998.61
2017-11-29T08:13:11.669Z,998.61
2017-11-29T08:14:11.646Z,998.62
2017-11-29T08:15:11.621Z,998.65
2017-11-29T08:16:11.609Z,998.67
2017-11-29T08:17:11.579Z,998.67
2017-11-29T08:18:11.564Z,998.66
2017-11-29T08:19:11.532Z,998.70
2017-11-29T08:20:11.520Z,998.72
2017-11-29T08:21:11.488Z,998.77
2017-11-29T08:22:11.468Z,998.78
2017-11-29T08:23:11.449Z,998.77
2017-11-29T08:24:11.422Z,998.80
2017-11-29T08:25:11.397Z,998.78
2017-11-29T08:26:11.377Z,998.83
2017-11-29T08:27:11.358Z,998.84
2017-11-29T08:28:11.336Z,998.84
2017-11-29T08:29:11.315Z,998.90
2017-11-29T08:30:11.286Z,998.88
2017-11-29T08:31:11.265Z,998.87
2017-11-29T08:32:11.242Z,998.87
2017-11-29T08:33:11.227Z,998.91
2017-11-29T08:34:11.196Z,998.92
2017-11-29T08:35:11.178Z,998.92
2017-11-29T08:36:11.154Z,998.94
2017-11-29T08:37:11.129Z,998.92
2017-11-29T08:38:11.107Z,998.97
2017-11-29T08:39:11.084Z,998.96
2017-11-29T08:40:11.068Z,998.94
2017-11-29T08:41:11.047Z,998.97
2017-11-29T08:42:11.027Z,998.97
2017-11-29T08:43:11.006Z,998.95
2017-11-29T08:44:10.980Z,998.96
2017-11-29T08:45:10.958Z,998.95
2017-11-29T08:46:10.926Z,998.96
2017-11-29T08:47:10.910Z,998.93
2017-11-29T08:48:10.884Z,998.98
2017-11-29T08:49:10.864Z,998.97
2017-11-29T08:50:10.838Z,998.98
2017-11-29T08:51:10.821Z,998.93
2017-11-29T08:52:10.815Z,998.94
2017-11-29T08:53:10.777Z,998.93
2017-11-29T08:54:10.756Z,998.95
2017-11-29T08:55:10.734Z,998.96
2017-11-29T08:56:10.707Z,998.96
2017-11-29T08:57:10.686Z,998.97
2017-11-29T08:58:10.668Z,998.97
2017-11-29T08:59:10.640Z,998.97
2017-11-29T09:00:10.616Z,999.02
2017-11-29T09:01:10.597Z,999.00
2017-11-29T09:02:10.577Z,999.03
2017-11-29T09:03:10.553Z,999.02
2017-11-29T09:04:10.528Z,999.06
2017-11-29T09:05:10.508Z,999.07
2017-11-29T09:06:10.487Z,999.07
2017-11-29T09:07:10.464Z,999.09
2017-11-29T09:08:10.439Z,999.11
2017-11-29T09:09:10.417Z,999.09
2017-11-29T09:10:10.396Z,999.12
2017-11-29T09:11:10.374Z,999.09
2017-11-29T09:12:10.356Z,999.06
2017-11-29T09:13:10.326Z,999.09
2017-11-29T09:14:10.310Z,999.11
2017-11-29T09:15:10.284Z,999.12
2017-11-29T09:16:10.267Z,999.14
2017-11-29T09:17:10.245Z,999.11
2017-11-29T09:18:10.216Z,999.12
2017-11-29T09:19:10.199Z,999.14
2017-11-29T09:20:10.174Z,999.16
2017-11-29T09:21:10.152Z,999.14
2017-11-29T09:22:10.130Z,999.11
2017-11-29T09:23:10.110Z,999.12
2017-11-29T09:24:10.084Z,999.12
2017-11-29T09:25:10.067Z,999.12
2017-11-29T09:26:10.044Z,999.10
2017-11-29T09:27:10.018Z,999.08
2017-11-29T09:28:09.995Z,999.08
2017-11-29T09:29:09.977Z,999.11
2017-11-29T09:30:09.950Z,999.09
2017-11-29T09:31:09.928Z,999.11
2017-11-29T09:32:09.906Z,999.05
2017-11-29T09:33:09.886Z,999.12
2017-11-29T09:34:09.862Z,999.12
2017-11-29T09:35:09.840Z,999.10
2017-11-29T09:36:09.831Z,999.13
2017-11-29T09:37:09.793Z,999.11
2017-11-29T09:38:09.776Z,999.12
2017-11-29T09:39:09.750Z,999.15
2017-11-29T09:40:09.727Z,999.16
2017-11-29T09:41:09.704Z,999.14
2017-11-29T09:42:09.688Z,999.20
2017-11-29T09:43:09.662Z,999.17
2017-11-29T09:44:09.640Z,999.18
2017-11-29T09:45:09.616Z,999.17
2017-11-29T09:46:09.591Z,999.18
2017-11-29T09:47:09.576Z,999.18
2017-11-29T09:48:09.550Z,999.21
2017-11-29T09:49:09.531Z,999.16
2017-11-29T09:50:09.513Z,999.15
2017-11-29T09:51:09.485Z,999.19
2017-11-29T09:52:09.461Z,999.19
2017-11-29T09:53:09.440Z,999.19
2017-11-29T09:54:09.427Z,999.20
2017-11-29T09:55:09.394Z,999.20
2017-11-29T09:56:09.403Z,999.18
2017-11-29T09:57:09.353Z,999.19
2017-11-29T09:58:09.323Z,999.21
2017-11-29T09:59:09.298Z,999.23
2017-11-29T10:00:09.276Z,999.20
2017-11-29T10:01:09.267Z,999.19
2017-11-29T10:02:09.236Z,999.20
2017-11-29T10:03:09.215Z,999.18
2017-11-29T10:04:09.186Z,999.17
2017-11-29T10:05:09.164Z,999.21
2017-11-29T10:06:09.147Z,999.22
2017-11-29T10:07:09.124Z,999.21
2017-11-29T10:08:09.108Z,999.22
2017-11-29T10:09:09.083Z,999.22
2017-11-29T10:10:09.063Z,999.26
2017-11-29T10:11:09.039Z,999.24
2017-11-29T10:12:09.014Z,999.24
2017-11-29T10:13:08.987Z,999.27
2017-11-29T10:14:08.967Z,999.21
2017-11-29T10:15:08.946Z,999.24
2017-11-29T10:16:08.919Z,999.26
2017-11-29T10:17:08.894Z,999.23
2017-11-29T10:18:08.882Z,999.26
2017-11-29T10:19:08.854Z,999.26
2017-11-29T10:20:08.831Z,999.24
2017-11-29T10:21:08.825Z,999.18
2017-11-29T10:22:08.784Z,999.20
2017-11-29T10:23:08.767Z,999.20
2017-11-29T10:24:08.746Z,999.21
2017-11-29T10:25:08.717Z,999.20
2017-11-29T10:26:08.697Z,999.23
2017-11-29T10:27:08.674Z,999.22
2017-11-29T10:28:08.649Z,999.22
2017-11-29T10:29:08.626Z,999.26
2017-11-29T10:30:08.608Z,999.22
2017-11-29T10:31:08.588Z,999.26
2017-11-29T10:32:08.562Z,999.24
2017-11-29T10:33:08.542Z,999.24
2017-11-29T10:34:08.515Z,999.20
2017-11-29T10:35:08.491Z,999.22
2017-11-29T10:36:08.476Z,999.24
2017-11-29T10:37:08.446Z,999.15
2017-11-29T10:38:08.427Z,999.18
2017-11-29T10:39:08.405Z,999.15
2017-11-29T10:40:08.379Z,999.18
2017-11-29T10:41:08.357Z,999.16
2017-11-29T10:42:08.339Z,999.19
2017-11-29T10:43:08.312Z,999.18
2017-11-29T10:44:08.300Z,999.18
2017-11-29T10:45:08.268Z,999.16
2017-11-29T10:46:08.245Z,999.17
2017-11-29T10:47:08.222Z,999.20
2017-11-29T10:48:08.203Z,999.20
2017-11-29T10:49:08.181Z,999.17
2017-11-29T10:50:08.159Z,999.21
2017-11-29T10:51:08.135Z,999.17
2017-11-29T10:52:08.118Z,999.20
2017-11-29T10:53:08.089Z,999.19
2017-11-29T10:54:08.065Z,999.15
2017-11-29T10:55:08.048Z,999.18
2017-11-29T10:56:08.024Z,999.14
2017-11-29T10:57:07.998Z,999.17
2017-11-29T10:58:07.982Z,999.16
2017-11-29T10:59:07.953Z,999.18
2017-11-29T11:00:07.940Z,999.13
2017-11-29T11:01:07.908Z,999.15
2017-11-29T11:02:07.900Z,999.15
2017-11-29T11:03:07.865Z,999.10
2017-11-29T11:04:07.841Z,999.13
2017-11-29T11:05:07.818Z,999.14
2017-11-29T11:06:07.799Z,999.08
2017-11-29T11:07:07.777Z,999.08
2017-11-29T11:08:07.753Z,999.11
2017-11-29T11:09:07.734Z,999.11
2017-11-29T11:10:07.713Z,999.08
2017-11-29T11:11:07.688Z,999.11
2017-11-29T11:12:07.676Z,999.10
2017-11-29T11:13:07.642Z,999.11
2017-11-29T11:14:07.627Z,999.09
2017-11-29T11:15:07.596Z,999.13
2017-11-29T11:16:07.582Z,999.12
2017-11-29T11:17:07.549Z,999.13
2017-11-29T11:18:07.527Z,999.17
2017-11-29T11:19:07.504Z,999.19
2017-11-29T11:20:07.490Z,999.21
2017-11-29T11:21:07.456Z,999.23
2017-11-29T11:22:07.442Z,999.21
2017-11-29T11:23:07.413Z,999.25
2017-11-29T11:24:07.398Z,999.26
2017-11-29T11:25:07.366Z,999.25
2017-11-29T11:26:07.375Z,999.28
2017-11-29T11:27:07.326Z,999.22
2017-11-29T11:28:07.302Z,999.25
2017-11-29T11:29:07.279Z,999.24
2017-11-29T11:30:07.256Z,999.22
2017-11-29T11:31:07.236Z,999.18
2017-11-29T11:32:07.218Z,999.20
2017-11-29T11:33:07.190Z,999.22
2017-11-29T11:34:07.175Z,999.21
2017-11-29T11:35:07.147Z,999.20
2017-11-29T11:36:07.122Z,999.22
2017-11-29T11:37:07.104Z,999.17
2017-11-29T11:38:07.078Z,999.18
2017-11-29T11:39:07.056Z,999.21
2017-11-29T11:40:07.033Z,999.17
2017-11-29T11:41:07.010Z,999.19
2017-11-29T11:42:06.987Z,999.15
2017-11-29T11:43:06.976Z,999.13
2017-11-29T11:44:06.954Z,999.11
2017-11-29T11:45:06.923Z,999.12
2017-11-29T11:46:06.899Z,999.14
2017-11-29T11:47:06.876Z,999.13
2017-11-29T11:48:06.857Z,999.11
2017-11-29T11:49:06.831Z,999.13
2017-11-29T11:50:06.813Z,999.14
2017-11-29T11:51:06.786Z,999.10
2017-11-29T11:52:06.768Z,999.14
2017-11-29T11:53:06.747Z,999.14
2017-11-29T11:54:06.740Z,999.13
2017-11-29T11:55:06.700Z,999.10
2017-11-29T11:56:06.679Z,999.09
2017-11-29T11:57:06.652Z,999.11
2017-11-29T11:58:06.637Z,999.10
2017-11-29T11:59:06.611Z,999.17
2017-11-29T12:00:06.590Z,999.15
2017-11-29T12:01:06.570Z,999.16
2017-11-29T12:02:06.550Z,999.18
2017-11-29T12:03:06.526Z,999.14
2017-11-29T12:04:06.502Z,999.17
2017-11-29T12:05:06.477Z,999.13
2017-11-29T12:06:06.459Z,999.14
2017-11-29T12:07:06.437Z,999.12
2017-11-29T12:08:06.420Z,999.12
2017-11-29T12:09:06.388Z,999.13
2017-11-29T12:10:06.365Z,999.11
2017-11-29T12:11:06.342Z,999.13
2017-11-29T12:12:06.328Z,999.13
2017-11-29T12:13:06.301Z,999.14
2017-11-29T12:14:06.277Z,999.15
2017-11-29T12:15:06.255Z,999.12
2017-11-29T12:16:06.239Z,999.12
2017-11-29T12:17:06.216Z,999.13
2017-11-29T12:18:06.188Z,999.10
2017-11-29T12:19:06.171Z,999.07
2017-11-29T12:20:06.149Z,999.10
2017-11-29T12:21:06.124Z,999.10
2017-11-29T12:22:06.097Z,999.09
2017-11-29T12:23:06.076Z,999.09
2017-11-29T12:24:06.057Z,999.02
2017-11-29T12:25:06.038Z,999.02
2017-11-29T12:26:06.008Z,999.01
2017-11-29T12:27:05.998Z,999.03
2017-11-29T12:28:05.968Z,998.96